createdAt,value
2019-01-05T00:00:28.499Z,97.98
2019-01-05T00:03:10.571Z,98.09
2019-01-05T00:06:15.566Z,98.08
2019-01-05T00:09:04.228Z,98.16
2019-01-05T00:12:02.640Z,98.11
2019-01-05T00:15:05.705Z,98.15
2019-01-05T00:18:11.536Z,98.11
2019-01-05T00:21:09.598Z,98.04
2019-01-05T00:23:59.516Z,98.08
2019-01-05T00:27:04.400Z,98.16
2019-01-05T00:29:50.253Z,98.23
2019-01-05T00:32:46.136Z,98.26
2019-01-05T00:36:02.409Z,98.26
2019-01-05T00:38:59.254Z,98.25
2019-01-05T00:41:55.380Z,98.27
2019-01-05T00:44:36.798Z,98.25
2019-01-05T00:47:28.540Z,98.30
2019-01-05T00:50:19.966Z,98.28
2019-01-05T00:53:09.614Z,98.21
2019-01-05T00:56:09.928Z,98.11
2019-01-05T00:58:56.596Z,98.23
2019-01-05T01:01:44.777Z,98.29
2019-01-05T01:04:33.068Z,98.28
2019-01-05T01:07:34.720Z,98.41
2019-01-05T01:10:36.698Z,98.41
2019-01-05T01:13:24.868Z,98.33
2019-01-05T01:16:13.265Z,98.28
2019-01-05T01:19:02.212Z,98.11
2019-01-05T01:22:03.727Z,98.16
2019-01-05T01:24:59.172Z,98.23
2019-01-05T01:27:51.877Z,98.24
2019-01-05T01:30:49.399Z,98.07
2019-01-05T01:33:43.927Z,98.14
2019-01-05T01:36:24.572Z,98.30
2019-01-05T01:39:43.677Z,98.33
2019-01-05T01:42:51.779Z,98.33
2019-01-05T01:45:50.972Z,98.22
2019-01-05T01:48:39.059Z,98.32
2019-01-05T01:51:35.523Z,98.32
2019-01-05T01:54:37.121Z,98.31
2019-01-05T01:57:34.650Z,98.35
2019-01-05T02:00:37.849Z,98.26
2019-01-05T02:03:32.878Z,98.39
2019-01-05T02:06:23.484Z,98.40
2019-01-05T02:09:21.132Z,98.34
2019-01-05T02:12:25.533Z,98.45
2019-01-05T02:15:19.251Z,98.40
2019-01-05T02:18:49.578Z,98.43
2019-01-05T02:22:19.164Z,98.48
2019-01-05T02:25:56.059Z,98.66
2019-01-05T02:29:50.491Z,98.61
2019-01-05T02:33:19.064Z,98.63
2019-01-05T02:36:53.177Z,98.49
2019-01-05T02:40:43.466Z,98.34
2019-01-05T02:44:32.204Z,98.43
2019-01-05T02:48:32.811Z,98.35
2019-01-05T02:52:10.160Z,98.29
2019-01-05T02:56:03.167Z,98.30
2019-01-05T03:00:03.616Z,98.37
2019-01-05T03:03:47.026Z,98.37
2019-01-05T03:07:14.952Z,98.21
2019-01-05T03:11:33.333Z,98.33
2019-01-05T03:15:26.347Z,98.27
2019-01-05T03:19:13.402Z,98.31
2019-01-05T03:23:14.740Z,98.23
2019-01-05T03:26:57.689Z,98.32
2019-01-05T03:30:49.535Z,98.37
2019-01-05T03:34:47.885Z,98.35
2019-01-05T03:38:47.214Z,98.44
2019-01-05T03:42:53.488Z,98.60
2019-01-05T03:46:31.618Z,98.55
2019-01-05T03:50:56.355Z,98.33
2019-01-05T03:54:47.804Z,98.29
2019-01-05T03:58:35.643Z,98.25
2019-01-05T04:01:57.391Z,98.17
2019-01-05T04:06:05.311Z,98.25
2019-01-05T04:10:03.838Z,98.17
2019-01-05T04:13:54.618Z,98.10
2019-01-05T04:17:42.897Z,98.19
2019-01-05T04:21:44.299Z,98.12
2019-01-05T04:25:10.194Z,98.09
2019-01-05T04:29:26.838Z,98.07
2019-01-05T04:33:01.489Z,98.01
2019-01-05T04:36:42.088Z,98.13
2019-01-05T04:40:40.879Z,98.23
2019-01-05T04:45:15.463Z,98.18
2019-01-05T04:49:10.142Z,98.25
2019-01-05T04:53:28.890Z,98.27
2019-01-05T04:57:28.389Z,98.34
2019-01-05T05:01:10.480Z,98.37
2019-01-05T05:05:06.208Z,98.48
2019-01-05T05:09:09.208Z,98.45
2019-01-05T05:13:16.709Z,98.43
2019-01-05T05:17:02.752Z,98.42
2019-01-05T05:20:59.259Z,98.52
2019-01-05T05:24:51.657Z,98.52
2019-01-05T05:29:00.323Z,98.61
2019-01-05T05:32:55.772Z,98.46
2019-01-05T05:36:43.771Z,98.55
2019-01-05T05:40:55.016Z,98.56
2019-01-05T05:44:50.756Z,98.67
2019-01-05T05:48:49.236Z,98.69
2019-01-05T05:52:42.254Z,98.72
2019-01-05T05:56:40.235Z,98.67
2019-01-05T06:00:23.851Z,98.70
2019-01-05T06:04:30.452Z,98.59
2019-01-05T06:08:13.614Z,98.44
2019-01-05T06:12:05.300Z,98.56
2019-01-05T06:15:38.616Z,98.66
2019-01-05T06:19:02.769Z,98.77
2019-01-05T06:23:00.982Z,98.80
2019-01-05T06:26:53.046Z,98.72
2019-01-05T06:30:52.343Z,98.69
2019-01-05T06:34:34.935Z,98.70
2019-01-05T06:38:33.859Z,98.61
2019-01-05T12:43:55.910Z,95.22
2019-01-05T12:47:58.035Z,95.11
2019-01-05T12:52:04.259Z,95.18
2019-01-05T12:56:06.411Z,94.88
2019-01-05T12:59:43.892Z,94.69
2019-01-05T13:03:21.496Z,94.79
2019-01-05T13:07:13.697Z,94.81
2019-01-05T13:10:56.456Z,94.44
2019-01-05T13:14:54.886Z,93.38
2019-01-05T13:19:10.020Z,93.97
2019-01-05T13:23:10.217Z,93.87
2019-01-05T13:27:30.298Z,94.05
2019-01-05T13:31:19.028Z,93.99
2019-01-05T13:34:59.507Z,94.13
2019-01-05T13:39:11.994Z,93.76
2019-01-05T13:43:04.191Z,94.58
2019-01-05T13:47:01.103Z,94.44
2019-01-05T13:50:46.504Z,94.83
2019-01-05T13:53:53.167Z,94.79
2019-01-05T13:57:08.040Z,95.04
2019-01-05T14:00:00.463Z,94.71
2019-01-05T14:02:48.870Z,94.52
2019-01-05T14:05:47.786Z,93.89
2019-01-05T14:08:36.772Z,93.65
2019-01-05T14:11:41.657Z,93.19
2019-01-05T14:14:29.845Z,93.43
2019-01-05T14:17:28.698Z,93.00
2019-01-05T14:20:36.247Z,93.50
2019-01-05T14:23:44.147Z,93.58
2019-01-05T14:26:38.864Z,93.60
2019-01-05T14:29:30.869Z,92.85
2019-01-05T14:32:20.386Z,92.96
2019-01-05T14:35:09.917Z,93.00
2019-01-05T14:38:00.375Z,92.75
2019-01-05T14:40:48.633Z,92.87
2019-01-05T14:43:36.957Z,92.83
2019-01-05T14:46:29.419Z,92.82
2019-01-05T14:49:34.001Z,93.05
2019-01-05T14:52:22.369Z,93.14
2019-01-05T14:55:18.793Z,93.22
2019-01-05T14:58:26.416Z,93.26
2019-01-05T15:01:14.544Z,93.25
2019-01-05T15:04:06.589Z,93.25
2019-01-05T15:07:11.199Z,93.47
2019-01-05T15:10:00.586Z,93.44
2019-01-05T15:12:49.980Z,93.54
2019-01-05T15:15:57.874Z,93.58
2019-01-05T15:18:46.036Z,93.32
2019-01-05T15:21:34.802Z,93.25
2019-01-05T15:24:39.531Z,93.25
2019-01-05T15:27:43.862Z,93.01
2019-01-05T15:30:32.419Z,93.26
2019-01-05T15:33:19.994Z,93.63
2019-01-05T15:36:08.030Z,93.26
2019-01-05T15:38:56.189Z,93.26
2019-01-05T15:41:41.715Z,93.51
2019-01-05T15:44:46.547Z,93.27
2019-01-05T15:47:40.303Z,93.23
2019-01-05T15:50:35.918Z,93.28
2019-01-05T15:53:24.121Z,93.60
2019-01-05T15:56:20.263Z,93.57
2019-01-05T15:59:09.648Z,93.75
2019-01-05T16:02:05.165Z,93.93
2019-01-05T16:05:06.744Z,94.05
2019-01-05T16:07:56.984Z,94.21
2019-01-05T16:10:43.246Z,94.12
2019-01-05T16:13:29.102Z,93.97
2019-01-05T16:16:17.289Z,93.90
2019-01-05T16:19:05.649Z,93.99
2019-01-05T16:21:54.066Z,93.51
2019-01-05T16:24:43.613Z,93.87
2019-01-05T16:27:32.013Z,93.93
2019-01-05T16:30:21.476Z,94.05
2019-01-05T16:33:09.517Z,93.88
2019-01-05T16:36:01.892Z,93.66
2019-01-05T16:39:00.130Z,93.92
2019-01-05T16:41:48.431Z,94.15
2019-01-05T16:44:36.763Z,94.21
2019-01-05T16:47:32.260Z,94.09
2019-01-05T16:50:40.114Z,94.28
2019-01-05T16:53:44.257Z,94.51
2019-01-05T16:56:45.388Z,94.32
2019-01-05T16:59:33.541Z,94.46
2019-01-05T17:02:28.108Z,94.38
2019-01-05T17:05:32.727Z,94.26
2019-01-05T17:08:27.992Z,94.35
2019-01-05T17:11:16.151Z,94.41
2019-01-05T17:14:17.645Z,94.32
2019-01-05T17:17:09.929Z,94.52
2019-01-05T17:20:01.121Z,94.57
2019-01-05T17:22:49.475Z,94.63
2019-01-05T17:25:51.032Z,94.68
2019-01-05T17:28:48.008Z,94.87
2019-01-05T17:31:43.485Z,94.93
2019-01-05T17:34:32.979Z,95.12
2019-01-05T17:37:22.369Z,94.92
2019-01-05T17:40:23.928Z,94.75
2019-01-05T17:43:25.704Z,94.51
2019-01-05T17:46:21.040Z,94.78
2019-01-05T17:49:29.011Z,94.89
2019-01-05T17:52:17.116Z,94.90
2019-01-05T17:55:20.116Z,95.01
2019-01-05T17:58:08.253Z,94.87
2019-01-05T18:01:00.686Z,94.70
2019-01-05T18:03:48.530Z,94.73
2019-01-05T18:06:46.782Z,94.66
2019-01-05T18:09:36.244Z,94.79
2019-01-05T18:12:24.844Z,94.86
2019-01-05T18:15:13.290Z,95.02
2019-01-05T18:18:01.712Z,94.93
2019-01-05T18:20:50.451Z,95.08
2019-01-05T18:23:52.336Z,95.07
2019-01-05T18:26:42.250Z,94.93
2019-01-05T18:29:30.405Z,95.34
2019-01-05T18:32:18.043Z,95.25
2019-01-05T18:35:19.620Z,95.14
2019-01-05T18:38:14.674Z,95.35
2019-01-05T22:58:30.595Z,97.39
2019-01-05T23:01:29.201Z,97.24
2019-01-05T23:04:21.015Z,97.08
2019-01-05T23:07:10.454Z,96.91
2019-01-05T23:10:06.102Z,96.74
2019-01-05T23:13:10.672Z,96.63
2019-01-05T23:16:09.287Z,96.41
2019-01-05T23:18:58.756Z,96.67
2019-01-05T23:21:54.149Z,96.65
2019-01-05T23:24:38.542Z,96.50
2019-01-05T23:27:21.265Z,96.28
2019-01-05T23:30:09.437Z,96.34
2019-01-05T23:33:13.262Z,96.22
2019-01-05T23:36:05.725Z,96.27
2019-01-05T23:38:59.340Z,96.59
2019-01-05T23:41:47.641Z,96.61
2019-01-05T23:44:49.162Z,96.38
2019-01-05T23:47:44.913Z,95.98
2019-01-05T23:50:49.737Z,96.05
2019-01-05T23:53:37.788Z,95.74
2019-01-05T23:56:42.388Z,95.26
2019-01-05T23:59:30.099Z,95.57
